aviador You're here:

KCKM Decoded Metar

in
Report Time2017-09-25 20:15:00
UTC Time2017-09-25 20:31:16
Flight Rules vfr VFR
WindCalm
Visibility9999 m
Phenomena:N/A
Clouds:N/A
Expected CloudBase > 5,200 ft AGL from Temp-Dew spread
CeilingNone
Temp31°C
Dew Point18°C (46% RH)
Heat Index31.9°C
QNH1013 hPa
Raw Report
KCKM 252015Z AUTO 00000KT 10SM 31/18 A2992 RMK A01=

Extra information for KCKM:More info

Social comments